createdAt,value
2022-10-02T00:00:48.246Z,11.17
2022-10-02T00:03:24.216Z,11.19
2022-10-02T00:06:20.115Z,11.34
2022-10-02T00:08:53.485Z,11.39
2022-10-02T00:11:38.806Z,11.42
2022-10-02T00:14:13.806Z,10.97
2022-10-02T00:16:51.392Z,11.26
2022-10-02T00:19:21.237Z,11.53
2022-10-02T00:21:50.451Z,11.50
2022-10-02T00:24:28.527Z,11.36
2022-10-02T00:27:20.823Z,11.48
2022-10-02T00:29:56.646Z,11.46
2022-10-02T00:32:55.107Z,11.46
2022-10-02T00:35:51.073Z,11.41
2022-10-02T00:38:33.799Z,11.63
2022-10-02T00:41:59.114Z,11.51
2022-10-02T00:45:03.657Z,11.45
2022-10-02T00:48:00.465Z,11.44
2022-10-02T00:51:01.730Z,11.59
2022-10-02T00:53:49.031Z,11.47
2022-10-02T00:56:43.009Z,11.37
2022-10-02T00:59:15.701Z,11.44
2022-10-02T01:02:03.304Z,11.39
2022-10-02T01:04:36.590Z,11.57
2022-10-02T01:07:12.511Z,11.57
2022-10-02T01:09:42.976Z,11.65
2022-10-02T01:12:12.863Z,11.58
2022-10-02T01:14:42.596Z,11.55
2022-10-02T01:17:44.492Z,11.84
2022-10-02T01:20:38.478Z,11.77
2022-10-02T01:23:26.230Z,11.77
2022-10-02T01:25:55.648Z,11.66
2022-10-02T01:28:24.584Z,11.85
2022-10-02T01:30:59.257Z,11.89
2022-10-02T01:33:29.166Z,11.91
2022-10-02T01:35:58.134Z,12.10
2022-10-02T01:38:28.900Z,12.30
2022-10-02T01:40:58.225Z,12.44
2022-10-02T01:43:35.467Z,12.67
2022-10-02T01:46:19.504Z,13.09
2022-10-02T01:48:54.033Z,13.19
2022-10-02T01:51:47.090Z,13.53
2022-10-02T01:54:38.067Z,13.87
2022-10-02T01:57:55.140Z,14.02
2022-10-02T02:00:27.287Z,14.23
2022-10-02T02:03:16.829Z,14.45
2022-10-02T02:05:49.166Z,14.66
2022-10-02T02:08:26.678Z,14.83
2022-10-02T02:11:18.465Z,15.26
2022-10-02T02:14:17.631Z,15.43
2022-10-02T02:16:54.199Z,15.72
2022-10-02T02:19:37.962Z,15.88
2022-10-02T02:22:16.646Z,15.89
2022-10-02T02:25:01.599Z,16.11
2022-10-02T02:27:41.072Z,16.31
2022-10-02T02:30:14.143Z,16.68
2022-10-02T02:33:21.778Z,16.93
2022-10-02T02:35:56.884Z,16.91
2022-10-02T02:38:38.645Z,17.21
2022-10-02T02:41:14.147Z,17.17
2022-10-02T02:43:48.654Z,17.65
2022-10-02T02:46:35.092Z,17.70
2022-10-02T02:49:13.640Z,17.93
2022-10-02T02:51:47.815Z,18.04
2022-10-02T02:54:25.658Z,18.44
2022-10-02T02:56:57.598Z,18.54
2022-10-02T02:59:32.475Z,18.77
2022-10-02T03:02:02.658Z,19.09
2022-10-02T03:04:32.051Z,19.35
2022-10-02T03:07:04.929Z,19.46
2022-10-02T03:09:35.987Z,19.48
2022-10-02T03:12:34.192Z,19.62
2022-10-02T03:15:25.732Z,19.79
2022-10-02T03:18:22.832Z,19.76
2022-10-02T03:21:09.347Z,20.03
2022-10-02T03:23:47.533Z,20.34
2022-10-02T03:26:39.130Z,20.28
2022-10-02T03:29:27.427Z,20.61
2022-10-02T03:31:58.966Z,21.06
2022-10-02T03:34:29.080Z,20.83
2022-10-02T03:36:58.542Z,20.74
2022-10-02T03:39:27.618Z,20.62
2022-10-02T03:41:56.863Z,20.59
2022-10-02T03:44:26.091Z,20.13
2022-10-02T03:46:55.793Z,20.36
2022-10-02T03:49:26.135Z,20.25
2022-10-02T03:51:54.959Z,20.26
2022-10-02T03:54:25.705Z,20.30
2022-10-02T03:56:58.885Z,20.25
2022-10-02T03:59:45.578Z,20.22
2022-10-02T04:02:44.503Z,19.79
2022-10-02T04:05:45.650Z,19.86
2022-10-02T04:08:17.307Z,19.87
2022-10-02T04:11:17.848Z,19.90
2022-10-02T04:13:56.874Z,19.69
2022-10-02T04:16:39.885Z,19.79
2022-10-02T04:19:30.751Z,19.50
2022-10-02T04:22:08.608Z,19.48
2022-10-02T04:24:43.866Z,19.37
2022-10-02T04:27:33.727Z,19.27
2022-10-02T04:30:14.237Z,19.31
2022-10-02T04:32:43.472Z,19.46
2022-10-02T04:35:16.279Z,19.39
2022-10-02T04:37:55.125Z,19.60
2022-10-02T04:40:51.678Z,19.56
2022-10-02T04:43:57.728Z,19.38
2022-10-02T04:46:36.602Z,19.25
2022-10-02T04:49:11.996Z,19.40
2022-10-02T04:51:41.134Z,19.21
2022-10-02T04:54:26.978Z,19.53
2022-10-02T04:57:11.115Z,19.52
2022-10-02T05:00:10.881Z,19.69
2022-10-02T05:03:02.991Z,19.67
2022-10-02T05:05:53.951Z,19.59
2022-10-02T05:08:56.565Z,19.68
2022-10-02T05:11:36.632Z,19.56
2022-10-02T05:14:17.924Z,19.76
2022-10-02T05:17:23.335Z,19.88
2022-10-02T05:20:11.134Z,20.00
2022-10-02T05:23:18.311Z,20.21
2022-10-02T05:26:27.566Z,20.18
2022-10-02T05:29:15.256Z,20.49
2022-10-02T05:32:07.135Z,21.13
2022-10-02T05:34:57.493Z,21.39
2022-10-02T05:37:34.254Z,21.58
2022-10-02T05:40:03.480Z,22.22
2022-10-02T05:42:45.478Z,22.68
2022-10-02T05:45:27.455Z,23.11
2022-10-02T05:48:06.014Z,23.45
2022-10-02T05:50:40.015Z,24.11
2022-10-02T05:53:21.575Z,24.50
2022-10-02T05:56:00.343Z,24.85
2022-10-02T05:58:37.989Z,25.14
2022-10-02T06:01:28.994Z,25.66
2022-10-02T06:04:21.563Z,26.04
2022-10-02T06:06:56.645Z,25.86
2022-10-02T06:09:33.745Z,26.32
2022-10-02T06:12:11.923Z,26.23
2022-10-02T06:15:00.279Z,26.71
2022-10-02T06:17:35.388Z,26.41
2022-10-02T06:20:25.286Z,26.66
2022-10-02T06:23:08.805Z,26.94
2022-10-02T06:25:50.144Z,26.28
2022-10-02T06:28:26.223Z,26.95
2022-10-02T06:31:11.979Z,27.23
2022-10-02T06:33:42.413Z,27.02
2022-10-02T06:36:36.855Z,27.08
2022-10-02T06:39:22.245Z,27.21
2022-10-02T06:42:16.626Z,27.73
2022-10-02T06:45:14.385Z,27.43
2022-10-02T06:48:11.667Z,27.38
2022-10-02T06:51:17.412Z,27.88
2022-10-02T06:53:50.505Z,26.42
2022-10-02T06:57:00.776Z,26.92
2022-10-02T06:59:48.121Z,27.00
2022-10-02T07:02:41.286Z,26.08
2022-10-02T07:05:43.273Z,26.85
2022-10-02T07:08:32.844Z,27.31
2022-10-02T07:11:07.605Z,26.94
2022-10-02T07:13:49.541Z,26.99
2022-10-02T07:16:51.314Z,27.73
2022-10-02T07:19:37.987Z,26.98
2022-10-02T07:22:44.115Z,27.29
2022-10-02T07:26:00.923Z,27.66
2022-10-02T07:28:30.620Z,28.16
2022-10-02T07:31:07.065Z,27.53
2022-10-02T07:33:58.196Z,27.57
2022-10-02T07:36:39.461Z,27.79
2022-10-02T07:39:21.893Z,26.94
2022-10-02T07:42:33.247Z,27.21
2022-10-02T07:45:09.414Z,27.15
2022-10-02T07:48:10.479Z,27.70
2022-10-02T07:50:43.017Z,26.67
2022-10-02T07:53:39.925Z,25.77
2022-10-02T07:56:21.306Z,25.89
2022-10-02T07:58:58.423Z,24.28
2022-10-02T08:01:37.528Z,25.92
2022-10-02T08:04:18.250Z,26.12
2022-10-02T08:06:50.059Z,26.61
2022-10-02T08:09:35.653Z,26.73
2022-10-02T08:12:31.085Z,26.60
2022-10-02T08:15:01.646Z,26.38
2022-10-02T08:17:45.446Z,26.80
2022-10-02T08:20:27.411Z,26.38
2022-10-02T08:23:07.862Z,24.47
2022-10-02T08:26:05.973Z,25.55
2022-10-02T08:28:59.525Z,26.48
2022-10-02T08:31:29.940Z,26.48
2022-10-02T08:34:00.660Z,26.25
2022-10-02T08:36:37.741Z,26.26
2022-10-02T08:39:25.175Z,25.38
2022-10-02T08:42:10.186Z,24.05
2022-10-02T08:45:10.123Z,23.64
2022-10-02T08:48:24.595Z,23.28
2022-10-02T08:51:18.945Z,23.66
2022-10-02T08:54:03.006Z,25.05
2022-10-02T08:56:42.625Z,25.95
2022-10-02T08:59:51.742Z,24.18
2022-10-02T09:03:02.645Z,23.85
2022-10-02T09:06:02.247Z,25.04
2022-10-02T09:08:50.166Z,26.11
2022-10-02T09:11:38.098Z,26.71
2022-10-02T09:14:44.758Z,26.89
2022-10-02T09:17:33.263Z,26.86
2022-10-02T09:20:41.579Z,26.98
2022-10-02T09:23:38.832Z,26.96
2022-10-02T09:26:53.251Z,26.40
2022-10-02T09:29:51.081Z,26.96
2022-10-02T09:32:27.471Z,26.39
2022-10-02T09:35:21.545Z,26.22
2022-10-02T09:38:22.208Z,26.60
2022-10-02T09:41:22.023Z,26.48
2022-10-02T09:44:09.916Z,26.53
2022-10-02T09:47:13.405Z,26.41
2022-10-02T09:50:05.401Z,26.11
2022-10-02T09:53:15.813Z,26.51
2022-10-02T09:56:22.118Z,26.32
2022-10-02T09:59:09.126Z,26.26
2022-10-02T10:02:15.810Z,24.52
2022-10-02T10:05:11.370Z,25.35
2022-10-02T10:08:18.207Z,25.71
2022-10-02T10:10:54.298Z,25.87
2022-10-02T10:13:53.619Z,25.83
2022-10-02T10:17:05.234Z,25.40
2022-10-02T10:19:53.319Z,25.45
2022-10-02T10:22:59.265Z,25.40
2022-10-02T10:25:56.199Z,25.36
2022-10-02T10:28:56.602Z,25.56
2022-10-02T10:32:06.029Z,25.43
2022-10-02T10:35:20.924Z,25.34
2022-10-02T10:38:16.805Z,25.02
2022-10-02T10:41:15.963Z,25.18
2022-10-02T10:44:23.301Z,24.32
2022-10-02T10:47:00.885Z,25.07
2022-10-02T10:49:56.161Z,24.64
2022-10-02T10:52:47.595Z,24.17
2022-10-02T10:55:47.143Z,24.21
2022-10-02T10:58:32.681Z,24.36
2022-10-02T11:01:46.273Z,23.78
2022-10-02T11:04:16.604Z,24.17
2022-10-02T11:07:43.718Z,24.36
2022-10-02T11:10:18.906Z,24.36
2022-10-02T11:13:14.497Z,24.14
2022-10-02T11:16:03.451Z,23.56
2022-10-02T11:18:36.805Z,23.24
2022-10-02T11:21:23.185Z,22.42
2022-10-02T11:23:57.904Z,22.62
2022-10-02T11:27:01.425Z,22.37
2022-10-02T11:29:50.611Z,22.08
2022-10-02T11:32:40.487Z,21.57
2022-10-02T11:35:24.377Z,21.12
2022-10-02T11:38:04.132Z,20.64
2022-10-02T11:41:08.762Z,20.44
2022-10-02T11:43:52.411Z,20.43
2022-10-02T11:46:30.410Z,19.79
2022-10-02T11:49:00.063Z,19.76
2022-10-02T11:51:47.351Z,19.65
2022-10-02T11:54:36.590Z,19.28
2022-10-02T11:57:22.394Z,19.17
2022-10-02T12:00:15.694Z,19.41
2022-10-02T12:03:11.767Z,19.39
2022-10-02T12:06:01.927Z,19.04
2022-10-02T12:08:51.845Z,19.35
2022-10-02T12:11:35.527Z,19.03
2022-10-02T12:14:33.649Z,18.68
2022-10-02T12:17:40.215Z,18.34
2022-10-02T12:20:34.221Z,18.46
2022-10-02T12:23:40.900Z,18.34
2022-10-02T12:26:53.100Z,18.47
2022-10-02T12:29:49.770Z,18.28
2022-10-02T12:32:37.360Z,18.21
2022-10-02T12:35:38.630Z,18.04
2022-10-02T12:38:28.165Z,17.86
2022-10-02T12:41:34.964Z,17.65
2022-10-02T12:44:33.320Z,17.27
2022-10-02T12:47:50.484Z,17.24
2022-10-02T12:50:42.448Z,17.12
2022-10-02T12:53:30.115Z,16.89
2022-10-02T12:56:46.902Z,16.81
2022-10-02T12:59:19.686Z,16.79
2022-10-02T13:02:16.305Z,16.75
2022-10-02T13:05:22.844Z,16.67
2022-10-02T13:08:17.033Z,16.55
2022-10-02T13:11:19.344Z,16.48
2022-10-02T13:14:27.440Z,16.40
2022-10-02T13:17:15.218Z,16.34
2022-10-02T13:20:14.023Z,16.20
2022-10-02T13:23:03.786Z,16.21
2022-10-02T13:26:02.455Z,16.13
2022-10-02T13:29:05.050Z,16.02
2022-10-02T13:31:52.067Z,15.88
2022-10-02T13:34:35.197Z,15.74
2022-10-02T13:37:48.227Z,15.56
2022-10-02T13:40:46.405Z,15.38
2022-10-02T13:43:35.656Z,15.19
2022-10-02T13:46:31.924Z,15.00
2022-10-02T13:49:19.565Z,14.86
2022-10-02T13:51:48.486Z,14.74
2022-10-02T13:55:13.449Z,14.66
2022-10-02T13:58:38.405Z,14.51
2022-10-02T14:01:45.085Z,14.52
2022-10-02T14:04:56.263Z,14.45
2022-10-02T14:07:48.085Z,14.41
2022-10-02T14:10:46.347Z,14.30
2022-10-02T14:13:39.289Z,14.23
2022-10-02T14:20:04.783Z,14.11
2022-10-02T14:22:55.352Z,14.04
2022-10-02T14:25:42.047Z,13.86
2022-10-02T14:28:27.418Z,14.01
2022-10-02T14:31:18.951Z,13.97
2022-10-02T14:34:11.205Z,13.90
2022-10-02T14:36:53.756Z,13.89
2022-10-02T14:40:02.389Z,13.86
2022-10-02T14:42:54.900Z,13.80
2022-10-02T14:46:01.221Z,13.77
2022-10-02T14:48:58.068Z,13.78
2022-10-02T14:52:15.925Z,13.70
2022-10-02T14:55:04.884Z,13.92
2022-10-02T14:57:45.695Z,13.92
2022-10-02T15:00:21.149Z,13.87
2022-10-02T15:03:29.346Z,13.73
2022-10-02T15:06:49.524Z,13.85
2022-10-02T15:09:29.585Z,13.83
2022-10-02T15:12:07.337Z,13.85
2022-10-02T15:15:04.946Z,13.70
2022-10-02T15:18:00.984Z,13.70
2022-10-02T15:21:01.108Z,13.72
2022-10-02T15:23:45.796Z,13.56
2022-10-02T15:26:39.721Z,13.67
2022-10-02T15:29:31.788Z,13.55
2022-10-02T15:32:29.376Z,13.62
2022-10-02T15:35:30.436Z,13.59
2022-10-02T15:38:18.300Z,13.55
2022-10-02T15:41:05.938Z,13.50
2022-10-02T15:43:47.176Z,13.48
2022-10-02T15:46:51.018Z,13.33
2022-10-02T15:49:55.157Z,13.31
2022-10-02T15:52:42.464Z,13.24
2022-10-02T15:55:22.508Z,13.20
2022-10-02T15:58:06.653Z,13.17
2022-10-02T16:01:02.705Z,12.97
2022-10-02T16:04:05.688Z,13.16
2022-10-02T16:06:58.094Z,13.16
2022-10-02T16:10:07.379Z,13.12
2022-10-02T16:12:52.753Z,13.21
2022-10-02T16:15:44.316Z,13.23
2022-10-02T16:18:54.579Z,13.33
2022-10-02T16:21:50.377Z,13.23
2022-10-02T16:24:19.177Z,13.43
2022-10-02T16:27:35.445Z,13.51
2022-10-02T16:30:09.123Z,13.37
2022-10-02T16:32:44.794Z,13.61
2022-10-02T16:35:43.536Z,13.42
2022-10-02T16:38:38.813Z,13.40
2022-10-02T16:41:39.453Z,13.46
2022-10-02T16:44:20.836Z,13.38
2022-10-02T16:46:55.322Z,13.09
2022-10-02T16:49:33.626Z,13.23
2022-10-02T16:52:06.483Z,12.99
2022-10-02T16:54:50.611Z,12.94
2022-10-02T16:57:40.956Z,13.00
2022-10-02T17:00:27.783Z,13.03
2022-10-02T17:03:03.003Z,13.02
2022-10-02T17:05:46.676Z,13.08
2022-10-02T17:08:32.074Z,13.05
2022-10-02T17:11:10.529Z,13.06
2022-10-02T17:14:13.100Z,12.99
2022-10-02T17:16:54.131Z,12.75
2022-10-02T17:19:46.692Z,12.88
2022-10-02T17:22:27.210Z,12.85
2022-10-02T17:25:18.437Z,12.71
2022-10-02T17:28:12.384Z,12.77
2022-10-02T17:31:13.463Z,12.62
2022-10-02T17:33:51.882Z,12.72
2022-10-02T17:36:49.058Z,12.69
2022-10-02T17:39:47.835Z,12.61
2022-10-02T17:42:44.558Z,12.54
2022-10-02T17:45:16.350Z,12.62
2022-10-02T17:47:54.133Z,12.58
2022-10-02T17:51:01.604Z,12.65
2022-10-02T17:54:23.751Z,12.69
2022-10-02T17:57:33.527Z,12.89
2022-10-02T18:00:24.743Z,12.93
2022-10-02T18:02:59.858Z,12.97
2022-10-02T18:05:46.142Z,13.02
2022-10-02T18:08:30.722Z,13.05
2022-10-02T18:11:32.674Z,13.11
2022-10-02T18:14:29.334Z,13.21
2022-10-02T18:17:23.424Z,13.12
2022-10-02T18:20:13.646Z,13.20
2022-10-02T18:22:56.610Z,13.06
2022-10-02T18:25:51.917Z,13.21
2022-10-02T18:29:10.823Z,13.17
2022-10-02T18:32:03.919Z,13.15
2022-10-02T18:35:14.981Z,13.18
2022-10-02T18:37:58.200Z,13.31
2022-10-02T18:40:35.922Z,13.17
2022-10-02T18:43:30.205Z,13.19
2022-10-02T18:46:14.299Z,13.02
2022-10-02T18:48:49.412Z,13.06
2022-10-02T18:51:18.215Z,13.00
2022-10-02T18:54:25.833Z,12.82
2022-10-02T18:57:29.324Z,12.90
2022-10-02T19:00:19.871Z,13.00
2022-10-02T19:03:13.142Z,13.02
2022-10-02T19:05:58.612Z,13.03
2022-10-02T19:09:08.370Z,12.96
2022-10-02T19:11:47.905Z,12.87
2022-10-02T19:14:29.206Z,12.98
2022-10-02T19:17:00.859Z,12.87
2022-10-02T19:19:31.281Z,12.83
2022-10-02T19:22:10.498Z,13.04
2022-10-02T19:24:42.187Z,13.07
2022-10-02T19:27:21.001Z,13.16
2022-10-02T19:29:58.054Z,13.01
2022-10-02T19:32:35.210Z,13.20
2022-10-02T19:35:33.759Z,13.30
2022-10-02T19:38:30.569Z,13.36
2022-10-02T19:41:03.119Z,13.40
2022-10-02T19:43:36.768Z,13.57
2022-10-02T19:46:10.557Z,13.48
2022-10-02T19:48:40.600Z,13.60
2022-10-02T19:51:19.141Z,13.69
2022-10-02T19:53:59.422Z,13.72
2022-10-02T19:56:43.074Z,13.72
2022-10-02T19:59:17.871Z,13.80
2022-10-02T20:01:54.966Z,13.85
2022-10-02T20:04:29.946Z,13.63
2022-10-02T20:07:00.817Z,13.67
2022-10-02T20:10:01.625Z,13.58
2022-10-02T20:12:40.424Z,13.84
2022-10-02T20:16:05.263Z,13.75
2022-10-02T20:18:35.250Z,13.68
2022-10-02T20:21:12.964Z,13.70
2022-10-02T20:23:45.229Z,13.68
2022-10-02T20:26:19.539Z,13.55
2022-10-02T20:28:54.521Z,13.86
2022-10-02T20:31:45.598Z,13.83
2022-10-02T20:34:32.449Z,13.77
2022-10-02T20:37:09.070Z,13.81
2022-10-02T20:40:19.378Z,13.81
2022-10-02T20:43:11.402Z,13.81
2022-10-02T20:46:03.568Z,13.89
2022-10-02T20:49:07.631Z,14.18
2022-10-02T20:52:01.633Z,14.24
2022-10-02T20:54:47.708Z,14.10
2022-10-02T20:57:29.871Z,14.01
2022-10-02T21:00:22.947Z,14.06
2022-10-02T21:03:29.156Z,14.09
2022-10-02T21:06:27.277Z,14.05
2022-10-02T21:09:10.878Z,13.91
2022-10-02T21:11:40.430Z,13.84
2022-10-02T21:14:22.728Z,14.03
2022-10-02T21:17:19.439Z,14.00
2022-10-02T21:20:16.643Z,13.96
2022-10-02T21:23:30.238Z,13.94
2022-10-02T21:26:48.459Z,13.91
2022-10-02T21:29:29.607Z,13.78
2022-10-02T21:32:29.724Z,13.77
2022-10-02T21:35:21.683Z,13.74
2022-10-02T21:37:56.075Z,13.65
2022-10-02T21:40:43.437Z,13.56
2022-10-02T21:43:34.003Z,13.50
2022-10-02T21:46:24.181Z,13.48
2022-10-02T21:49:37.938Z,13.28
2022-10-02T21:52:28.641Z,13.46
2022-10-02T21:55:20.226Z,13.32
2022-10-02T21:58:41.195Z,13.73
2022-10-02T22:02:07.327Z,14.15
2022-10-02T22:05:26.713Z,13.96
2022-10-02T22:08:11.846Z,13.94
2022-10-02T22:10:57.236Z,13.78
2022-10-02T22:13:32.407Z,13.84
2022-10-02T22:16:13.529Z,13.78
2022-10-02T22:19:00.423Z,13.74
2022-10-02T22:21:53.254Z,13.78
2022-10-02T22:24:28.022Z,13.66
2022-10-02T22:27:34.510Z,13.61
2022-10-02T22:30:04.550Z,13.43
2022-10-02T22:33:13.120Z,13.49
2022-10-02T22:35:50.565Z,13.37
2022-10-02T22:38:40.450Z,13.34
2022-10-02T22:41:27.873Z,13.27
2022-10-02T22:44:02.538Z,13.21
2022-10-02T22:47:10.312Z,13.11
2022-10-02T22:49:48.184Z,13.08
2022-10-02T22:52:29.030Z,12.97
2022-10-02T22:55:02.790Z,12.88
2022-10-02T22:57:44.059Z,12.89
2022-10-02T23:00:17.533Z,12.78
2022-10-02T23:03:20.354Z,12.83
2022-10-02T23:05:58.673Z,12.69
2022-10-02T23:08:30.889Z,12.68
2022-10-02T23:11:15.739Z,12.45
2022-10-02T23:13:57.881Z,12.27
2022-10-02T23:16:43.763Z,12.24
2022-10-02T23:19:21.081Z,12.15
2022-10-02T23:22:08.435Z,11.98
2022-10-02T23:25:03.262Z,11.80
2022-10-02T23:27:46.464Z,11.61
2022-10-02T23:30:23.086Z,11.51
2022-10-02T23:32:57.355Z,11.58
2022-10-02T23:35:51.030Z,11.53
2022-10-02T23:38:26.661Z,11.40
2022-10-02T23:41:35.403Z,11.40
2022-10-02T23:44:22.003Z,11.24
2022-10-02T23:46:51.091Z,11.33
2022-10-02T23:49:23.235Z,11.32
2022-10-02T23:52:34.167Z,11.23
2022-10-02T23:55:47.187Z,11.27
2022-10-02T23:58:37.068Z,11.39
